Ghotki Weather



Ghotki's Current Weather

Temprature 40o haze

haze

Rain: 0 %

Min Temprature40o
Max Temprature40o
Humidity25
Wind Speed3.09 m/h
Sun Rise05:37:35
Sun Set19:00:52
Current Time: 08-May-2021 15:07:13
Lat/Lon: 28.006, 69.3161




Ghotki's Geo Location



Ghotki's Weather Forecast

Time Overall Temp Min Temp Max Temp Humidity Wind Speed Rain
08-May-2021 (Sat)
17:00:00 broken clouds 40.580 40.580 41.750 20 2.77 m/h 0 %
20:00:00 broken clouds 37.620 36.430 37.620 21 3.85 m/h 0 %
23:00:00 overcast clouds 33.020 33.020 33.020 25 4.07 m/h 0 %
09-May-2021 (Sun)
02:00:00 broken clouds 30.870 30.870 30.870 30 2.2 m/h 0 %
05:00:00 broken clouds 30.060 30.060 30.060 30 2.1 m/h 0 %
08:00:00 broken clouds 34.530 34.530 34.530 22 1.87 m/h 0 %
11:00:00 scattered clouds 41.000 41.000 41.000 13 3.56 m/h 0 %
14:00:00 clear sky 43.260 43.260 43.260 10 4.71 m/h 0 %
17:00:00 few clouds 42.680 42.680 42.680 8 5.56 m/h 0 %
20:00:00 overcast clouds 36.590 36.590 36.590 16 4.67 m/h 0 %
23:00:00 broken clouds 33.490 33.490 33.490 26 8.16 m/h 0 %
10-May-2021 (Mon)
02:00:00 broken clouds 32.600 32.600 32.600 25 5.92 m/h 0 %
05:00:00 overcast clouds 30.240 30.240 30.240 30 3.36 m/h 0 %
08:00:00 overcast clouds 33.860 33.860 33.860 27 3.15 m/h 0 %
11:00:00 broken clouds 39.580 39.580 39.580 16 3.3 m/h 0 %
14:00:00 clear sky 42.850 42.850 42.850 11 3.76 m/h 0 %
17:00:00 clear sky 42.640 42.640 42.640 10 3.95 m/h 0 %
20:00:00 clear sky 38.850 38.850 38.850 14 2.98 m/h 0 %
23:00:00 clear sky 34.420 34.420 34.420 22 5.15 m/h 0 %
11-May-2021 (Tue)
02:00:00 few clouds 32.900 32.900 32.900 35 3.6 m/h 0 %
05:00:00 clear sky 31.000 31.000 31.000 37 4.33 m/h 0 %
08:00:00 few clouds 34.800 34.800 34.800 25 3.07 m/h 0 %
11:00:00 clear sky 40.930 40.930 40.930 14 1.7 m/h 0 %
14:00:00 clear sky 43.900 43.900 43.900 9 2.63 m/h 0 %
17:00:00 scattered clouds 38.420 38.420 38.420 16 7.4 m/h 0 %
20:00:00 overcast clouds 38.480 38.480 38.480 15 3.31 m/h 0 %
23:00:00 broken clouds 35.520 35.520 35.520 18 0.94 m/h 0 %
12-May-2021 (Wed)
02:00:00 overcast clouds 34.310 34.310 34.310 20 3.27 m/h 0 %
05:00:00 broken clouds 32.600 32.600 32.600 22 2.91 m/h 0 %
08:00:00 clear sky 36.510 36.510 36.510 13 2.07 m/h 0 %
11:00:00 clear sky 41.970 41.970 41.970 6 2.83 m/h 0 %
14:00:00 clear sky 43.560 43.560 43.560 7 1.85 m/h 0 %
17:00:00 clear sky 43.360 43.360 43.360 6 1.9 m/h 0 %
20:00:00 clear sky 38.160 38.160 38.160 11 3.13 m/h 0 %
23:00:00 clear sky 35.720 35.720 35.720 15 2.18 m/h 0 %
13-May-2021 (Thu)
02:00:00 clear sky 30.140 30.140 30.140 38 8.51 m/h 0 %
05:00:00 clear sky 28.250 28.250 28.250 46 8.04 m/h 0 %
08:00:00 clear sky 30.810 30.810 30.810 40 8.82 m/h 0 %
11:00:00 clear sky 37.220 37.220 37.220 24 6.49 m/h 0 %
14:00:00 clear sky 40.960 40.960 40.960 14 4.53 m/h 0 %

Famous Cities (60)